LICC Airport Information

Runway Information
Runway 08 Length 7989 ft width 148 ft
Elevation 37 ft Threshold 312 ft Heading 84
Runway 26 Length 7989 ft Width 148 ft
Elevation 17 ft Threshold 279 ft Heading 264
Airport Frequencies
Type APP Name APP Frequency 119.25 MHZ
Type DIR Name DIRECTOR Frequency 120.8 MHZ
Type GND Name GND Frequency 129.725 MHZ
Type TWR Name TWR Frequency 118.7 MHZ
Airport Navaids
Type NDB Name Catania Frequency 345 KHZ
Type VOR-DME Name Catania Fontanarossa Frequency 116250 KHZ
Type NDB Name Catania Fontanarossa Frequency 407 KHZ
Airport Weather Information & NOTAM
ADDS - METARS form results

(1109 UTC 04 December 2020)
Data provider http://aviationweather.gov/metar/data/
 
METAR text: LICC 041050Z 25011KT 9999 FEW030 16/08 Q1008
Conditions at: LICC (CATANIA/FONTANAR, IT) observed 1050 UTC 04 December 2020
Temperature: 16.0°C (61°F)
Dewpoint: 8.0°C (46°F) [RH = 59%]
Pressure (altimeter): 29.76 inches Hg (1008.0 mb)
Winds: from the WSW (250 degrees) at 13 MPH (11 knots; 5.7 m/s)
Visibility: 6 or more miles (10+ km)
Ceiling: at least 12,000 feet AGL
Clouds: few clouds at 3000 feet AGL
Weather: no significant weather observed at this time

METAR text: LICC 041020Z 24013KT 9999 FEW065 15/08 Q1008
Conditions at: LICC (CATANIA/FONTANAR, IT) observed 1020 UTC 04 December 2020
Temperature: 15.0°C (59°F)
Dewpoint: 8.0°C (46°F) [RH = 63%]
Pressure (altimeter): 29.76 inches Hg (1008.0 mb)
Winds: from the WSW (240 degrees) at 15 MPH (13 knots; 6.7 m/s)
Visibility: 6 or more miles (10+ km)
Ceiling: at least 12,000 feet AGL
Clouds: few clouds at 6500 feet AGL
Weather: no significant weather observed at this time

Forecast for: LICC (CATANIA/FONTANAR, IT)
Text: TAF LICC 040500Z 0406/0506 25012KT 9999 SCT030
Forecast period: 0600 to 1600 UTC 04 December 2020
Forecast type: FROM: standard forecast or significant change
Winds: from the WSW (250 degrees) at 14 MPH (12 knots; 6.2 m/s)
Visibility: 6 or more miles (10+ km)
Ceiling: at least 12,000 feet AGL
Clouds: scattered clouds at 3000 feet AGL
Weather: no significant weather forecast for this period
Text: BECMG 0416/0418 VRB05KT
Forecast period: 1600 UTC 04 December 2020 to 0600 UTC 05 December 2020
Forecast type: BECOMING: Conditions expected to become as follows by 1800 UTC 04 December 2020
Winds: variable direction winds at 6 MPH (5 knots; 2.6 m/s)
Visibility: 6 or more miles (10+ km)
Ceiling: at least 12,000 feet AGL
Clouds: scattered clouds at 3000 feet AGL
Weather: no significant weather forecast for this period